Time;durP1;ratioP1;P1;durP2;ratioP2;P2;SDS_P1;SDS_P2;PMS_P1;PMS_P2;Temp;Humidity;BMP_temperature;BMP_pressure;BME280_temperature;BME280_humidity;BME280_pressure;Samples;Min_cycle;Max_cycle;Signal;HPM_P1;HPM_P2
2022/05/02 00:00:14;;;;;;;7.15;5.03;;;7.80;93.30;;;;;;5009350;28;21307;-33
2022/05/02 00:02:40;;;;;;;9.98;4.68;;;7.80;93.10;;;;;;5011967;28;20046;-33
2022/05/02 00:05:08;;;;;;;7.18;5.43;;;7.70;93.10;;;;;;5009181;28;20065;-33
2022/05/02 00:07:35;;;;;;;6.90;4.78;;;7.70;93.20;;;;;;5009955;28;20121;-33
2022/05/02 00:10:02;;;;;;;5.93;4.70;;;7.70;93.10;;;;;;5006482;28;20046;-33
2022/05/02 00:12:30;;;;;;;7.57;4.80;;;7.70;93.00;;;;;;4999425;28;20467;-33
2022/05/02 00:14:57;;;;;;;10.50;5.30;;;7.60;92.90;;;;;;5003883;28;20053;-33
2022/05/02 00:17:56;;;;;;;9.27;5.38;;;7.60;93.00;;;;;;5006429;28;20060;-34
2022/05/02 00:20:11;;;;;;;8.85;5.45;;;7.60;92.90;;;;;;5011554;28;20053;-33
2022/05/02 00:22:38;;;;;;;6.82;5.55;;;7.50;92.80;;;;;;5011106;28;20054;-33
2022/05/02 00:25:05;;;;;;;6.90;4.65;;;7.40;92.90;;;;;;5011176;28;20056;-33
2022/05/02 00:27:33;;;;;;;9.18;5.28;;;7.40;92.90;;;;;;5011649;28;20060;-33
2022/05/02 00:30:00;;;;;;;8.43;5.38;;;7.40;92.90;;;;;;5012154;28;20054;-34
2022/05/02 00:32:27;;;;;;;6.80;4.57;;;7.30;93.00;;;;;;5011457;28;20622;-33
2022/05/02 00:34:53;;;;;;;7.13;5.20;;;7.30;93.30;;;;;;5011361;28;20072;-33
2022/05/02 00:37:20;;;;;;;8.43;5.22;;;7.30;93.10;;;;;;5004589;28;20053;-33
2022/05/02 00:39:47;;;;;;;5.53;4.60;;;7.20;93.10;;;;;;5010757;28;20145;-32
2022/05/02 00:42:13;;;;;;;8.25;5.50;;;7.20;93.00;;;;;;5012119;28;20050;-32
2022/05/02 00:44:44;;;;;;;7.28;5.13;;;7.20;93.30;;;;;;5012043;28;20056;-32
2022/05/02 00:47:10;;;;;;;7.97;5.43;;;7.10;93.40;;;;;;5012000;28;20057;-33
2022/05/02 00:49:38;;;;;;;9.98;5.30;;;7.10;93.60;;;;;;5011957;28;20469;-33
2022/05/02 00:52:06;;;;;;;8.27;5.68;;;7.10;93.70;;;;;;5010377;28;20061;-32
2022/05/02 00:54:33;;;;;;;7.72;5.68;;;7.00;93.70;;;;;;5011523;28;20418;-33
2022/05/02 00:56:59;;;;;;;6.82;5.32;;;7.00;93.60;;;;;;5015800;28;20475;-33
2022/05/02 00:59:26;;;;;;;6.95;5.57;;;7.00;93.50;;;;;;5012814;28;20128;-33
2022/05/02 01:01:54;;;;;;;7.95;5.00;;;7.00;93.40;;;;;;5015912;28;20061;-33
2022/05/02 01:04:21;;;;;;;6.32;5.20;;;6.90;93.40;;;;;;5014086;28;20421;-33
2022/05/02 01:09:32;;;;;;;7.93;5.40;;;6.90;93.50;;;;;;5012669;28;20053;-33
2022/05/02 01:11:59;;;;;;;9.02;5.53;;;6.80;93.50;;;;;;5009781;28;20062;-34
2022/05/02 01:14:25;;;;;;;8.23;5.78;;;6.80;93.50;;;;;;5010259;28;20054;-33
2022/05/02 01:16:53;;;;;;;8.18;5.68;;;6.70;93.40;;;;;;5013931;28;20520;-33
2022/05/02 01:19:20;;;;;;;9.95;5.50;;;6.70;93.40;;;;;;5016207;28;20059;-34
2022/05/02 01:21:48;;;;;;;7.93;5.38;;;6.70;93.70;;;;;;5011119;28;20050;-33
2022/05/02 01:24:15;;;;;;;8.80;5.50;;;6.60;93.80;;;;;;5014147;28;20780;-33
2022/05/02 01:26:41;;;;;;;13.10;6.13;;;6.60;94.20;;;;;;5013940;28;20045;-33
2022/05/02 01:29:08;;;;;;;6.88;5.88;;;6.60;94.00;;;;;;5008425;28;20056;-33
2022/05/02 01:31:35;;;;;;;7.38;6.00;;;6.50;94.10;;;;;;5015158;28;20490;-34
2022/05/02 01:34:02;;;;;;;11.32;6.47;;;6.50;94.00;;;;;;5014477;28;20041;-33
2022/05/02 01:36:29;;;;;;;9.57;5.93;;;6.50;94.10;;;;;;5013970;28;20049;-33
2022/05/02 01:38:57;;;;;;;8.18;6.22;;;6.50;94.50;;;;;;5015189;28;20062;-33
2022/05/02 01:41:24;;;;;;;9.88;5.80;;;6.40;94.60;;;;;;5009209;28;20045;-33
2022/05/02 01:43:50;;;;;;;8.30;5.75;;;6.40;94.80;;;;;;5011596;28;20054;-33
2022/05/02 01:46:17;;;;;;;9.02;6.20;;;6.40;94.90;;;;;;5013378;28;20041;-33
2022/05/02 01:48:44;;;;;;;13.27;8.25;;;6.30;95.40;;;;;;5012011;28;20056;-33
2022/05/02 01:51:11;;;;;;;14.25;9.35;;;6.20;96.10;;;;;;5013534;28;20049;-33
2022/05/02 01:53:37;;;;;;;7.82;5.90;;;6.20;96.70;;;;;;5013570;28;20056;-33
2022/05/02 01:56:05;;;;;;;10.38;5.95;;;6.10;96.90;;;;;;5014003;28;20108;-33
2022/05/02 01:58:32;;;;;;;8.68;6.93;;;6.10;96.90;;;;;;5014176;28;20057;-33
2022/05/02 02:00:59;;;;;;;10.38;7.40;;;6.00;96.90;;;;;;5002571;28;20046;-33
2022/05/02 02:03:25;;;;;;;11.27;7.35;;;6.00;96.80;;;;;;5015146;28;20125;-33
2022/05/02 02:05:51;;;;;;;9.07;6.85;;;6.00;97.00;;;;;;5013101;28;20054;-33
2022/05/02 02:08:19;;;;;;;12.52;7.88;;;6.00;96.90;;;;;;5014842;28;20064;-33
2022/05/02 02:10:46;;;;;;;15.15;8.10;;;5.90;97.30;;;;;;5014160;28;20045;-33
2022/05/02 02:13:14;;;;;;;10.35;7.00;;;5.90;97.60;;;;;;5014446;28;20533;-32
2022/05/02 02:15:41;;;;;;;11.13;7.05;;;5.90;97.70;;;;;;5006931;28;20042;-33
2022/05/02 02:18:08;;;;;;;9.32;6.65;;;5.80;97.80;;;;;;5014196;28;20056;-33
2022/05/02 02:20:35;;;;;;;12.00;8.50;;;5.80;97.30;;;;;;5012747;28;20050;-31
2022/05/02 02:23:01;;;;;;;9.70;6.97;;;5.80;97.60;;;;;;5014255;28;20054;-33
2022/05/02 02:25:28;;;;;;;9.52;6.32;;;5.80;97.50;;;;;;5013757;28;20132;-33
2022/05/02 02:27:55;;;;;;;10.68;7.45;;;5.80;97.30;;;;;;5008790;28;20051;-34
2022/05/02 02:30:23;;;;;;;9.10;7.15;;;5.80;97.10;;;;;;5011900;28;20050;-32
2022/05/02 02:32:50;;;;;;;13.38;7.78;;;5.80;97.00;;;;;;5013058;28;20045;-32
2022/05/02 02:35:18;;;;;;;13.45;8.57;;;5.80;97.10;;;;;;5013700;28;20046;-33
2022/05/02 02:37:46;;;;;;;10.80;7.20;;;5.70;97.40;;;;;;5009717;28;20125;-33
2022/05/02 02:40:13;;;;;;;8.50;6.68;;;5.70;97.70;;;;;;5009995;28;20442;-33
2022/05/02 02:42:39;;;;;;;8.98;6.82;;;5.70;97.70;;;;;;5005916;28;20048;-32
2022/05/02 02:45:07;;;;;;;10.45;7.78;;;5.60;97.50;;;;;;5013464;28;20045;-33
2022/05/02 02:47:35;;;;;;;9.13;6.75;;;5.60;97.70;;;;;;5013703;28;20066;-33
2022/05/02 02:50:02;;;;;;;10.18;7.60;;;5.60;97.20;;;;;;5013872;28;20056;-32
2022/05/02 02:52:29;;;;;;;10.15;7.57;;;5.60;97.00;;;;;;5014142;28;20060;-33
2022/05/02 02:54:55;;;;;;;8.45;6.85;;;5.60;96.90;;;;;;5013828;28;20053;-33
2022/05/02 02:57:22;;;;;;;10.05;6.97;;;5.60;96.80;;;;;;5004421;28;20084;-32
2022/05/02 02:59:49;;;;;;;8.20;6.63;;;5.60;96.60;;;;;;5007779;28;20054;-33
2022/05/02 03:02:15;;;;;;;10.07;7.25;;;5.60;96.50;;;;;;5008595;28;20056;-33
2022/05/02 03:07:28;;;;;;;10.95;7.05;;;5.50;96.30;;;;;;5007348;28;20494;-33
2022/05/02 03:09:54;;;;;;;8.90;7.30;;;5.50;96.30;;;;;;5013306;28;20050;-33
2022/05/02 03:12:21;;;;;;;9.60;7.22;;;5.50;96.30;;;;;;5013140;28;20409;-33
2022/05/02 03:14:48;;;;;;;10.00;7.10;;;5.40;96.40;;;;;;5011280;28;20418;-33
2022/05/02 03:17:15;;;;;;;11.75;7.75;;;5.40;96.60;;;;;;5012924;28;20050;-33
2022/05/02 03:19:43;;;;;;;10.00;7.25;;;5.40;96.80;;;;;;5013170;28;20057;-33
2022/05/02 03:22:10;;;;;;;11.07;7.60;;;5.30;96.70;;;;;;5012022;28;20060;-33
2022/05/02 03:24:36;;;;;;;12.43;7.72;;;5.30;96.70;;;;;;5007299;28;20410;-33
2022/05/02 03:27:03;;;;;;;10.85;7.40;;;5.30;96.70;;;;;;5001656;28;20057;-33
2022/05/02 03:29:30;;;;;;;10.77;7.18;;;5.30;96.70;;;;;;5013507;28;20050;-33
2022/05/02 03:31:57;;;;;;;10.40;7.43;;;5.30;96.60;;;;;;5005973;28;20056;-33
2022/05/02 03:34:23;;;;;;;9.80;7.53;;;5.20;96.50;;;;;;5013239;28;20052;-33
2022/05/02 03:36:51;;;;;;;9.30;7.57;;;5.20;96.60;;;;;;5009378;28;20153;-33
2022/05/02 03:39:18;;;;;;;10.60;8.65;;;5.20;96.80;;;;;;5011118;28;20068;-33
2022/05/02 03:41:45;;;;;;;11.05;8.50;;;5.20;97.30;;;;;;5012527;28;20042;-33
2022/05/02 03:44:11;;;;;;;11.23;8.50;;;5.10;97.70;;;;;;5006468;28;20054;-33
2022/05/02 03:46:38;;;;;;;11.20;7.78;;;5.20;97.80;;;;;;5004874;28;20474;-33
2022/05/02 03:49:05;;;;;;;10.18;7.47;;;5.10;97.70;;;;;;5006946;28;20046;-33
2022/05/02 03:51:31;;;;;;;10.73;8.25;;;5.00;97.60;;;;;;5008301;28;20060;-32
2022/05/02 03:53:59;;;;;;;9.65;7.13;;;5.00;97.60;;;;;;5016040;28;20108;-33
2022/05/02 03:56:26;;;;;;;10.82;7.55;;;5.00;97.50;;;;;;5011003;28;20402;-33
2022/05/02 03:58:53;;;;;;;8.98;7.95;;;5.00;97.30;;;;;;5010621;28;20049;-32
2022/05/02 04:01:19;;;;;;;11.77;8.52;;;5.00;97.20;;;;;;5011203;28;20088;-33
2022/05/02 04:03:47;;;;;;;11.27;8.20;;;5.00;97.20;;;;;;5008334;28;20402;-33
2022/05/02 04:06:13;;;;;;;10.77;7.75;;;4.90;97.20;;;;;;5011156;28;20561;-33
2022/05/02 04:08:40;;;;;;;11.23;8.70;;;4.90;97.10;;;;;;5011749;28;20072;-33
2022/05/02 04:11:08;;;;;;;11.10;8.75;;;4.90;97.30;;;;;;5011278;28;20108;-33
2022/05/02 04:13:35;;;;;;;13.02;8.88;;;4.90;97.90;;;;;;5008332;28;21391;-33
2022/05/02 04:16:02;;;;;;;11.60;8.60;;;4.90;98.20;;;;;;5007163;28;20060;-33
2022/05/02 04:18:28;;;;;;;11.63;9.57;;;4.80;98.30;;;;;;5009488;28;20056;-33
2022/05/02 04:20:55;;;;;;;11.25;8.70;;;4.80;98.60;;;;;;5010597;28;20505;-33
2022/05/02 04:23:22;;;;;;;13.32;9.23;;;4.80;98.60;;;;;;5011782;28;20133;-33
2022/05/02 04:25:49;;;;;;;15.52;10.85;;;4.80;98.70;;;;;;5011998;28;20108;-33
2022/05/02 04:28:17;;;;;;;9.60;7.90;;;4.70;99.00;;;;;;5003832;28;20046;-33
2022/05/02 04:30:43;;;;;;;13.35;9.68;;;4.70;99.10;;;;;;5010995;28;20042;-33
2022/05/02 04:33:12;;;;;;;13.80;9.32;;;4.70;99.20;;;;;;5009245;28;20710;-33
2022/05/02 04:35:39;;;;;;;13.95;9.20;;;4.70;99.10;;;;;;5011783;28;20046;-33
2022/05/02 04:38:06;;;;;;;11.32;8.90;;;4.70;99.30;;;;;;5011166;28;20045;-33
2022/05/02 04:40:32;;;;;;;11.60;9.07;;;4.70;98.90;;;;;;5011772;28;20054;-33
2022/05/02 04:42:59;;;;;;;9.93;8.02;;;4.70;98.80;;;;;;5001680;28;20046;-33
2022/05/02 04:45:27;;;;;;;12.20;9.02;;;4.70;98.70;;;;;;5011631;28;20050;-33
2022/05/02 04:47:54;;;;;;;12.02;8.68;;;4.80;98.60;;;;;;5011820;28;20406;-33
2022/05/02 04:50:21;;;;;;;11.32;9.30;;;4.80;98.50;;;;;;5009988;28;20050;-32
2022/05/02 04:52:47;;;;;;;12.07;9.13;;;4.80;98.50;;;;;;5011414;28;20057;-33
2022/05/02 04:55:14;;;;;;;11.48;8.13;;;4.80;98.50;;;;;;5011260;28;20046;-32
2022/05/02 04:57:41;;;;;;;11.57;8.35;;;4.80;98.50;;;;;;5011200;28;20522;-33
2022/05/02 05:00:08;;;;;;;10.15;8.27;;;4.80;98.40;;;;;;5008890;28;20050;-33
2022/05/02 05:02:36;;;;;;;13.30;8.65;;;4.90;98.20;;;;;;5011142;28;20062;-33
2022/05/02 05:05:03;;;;;;;14.40;8.93;;;4.90;98.20;;;;;;5010282;28;20049;-33
2022/05/02 05:07:30;;;;;;;10.85;7.85;;;4.90;98.20;;;;;;5011807;28;20136;-34
2022/05/02 05:09:57;;;;;;;14.00;9.43;;;4.90;98.20;;;;;;5009873;28;20429;-33
2022/05/02 05:12:34;;;;;;;15.43;11.45;;;5.00;98.20;;;;;;5011835;28;20056;-33
2022/05/02 05:18:02;;;;;;;19.73;14.10;;;5.10;99.20;;;;;;5011427;28;20042;-33
2022/05/02 05:20:33;;;;;;;20.08;14.95;;;5.10;99.80;;;;;;5002691;28;20046;-33
2022/05/02 05:23:16;;;;;;;19.25;13.45;;;5.20;99.90;;;;;;5012055;28;20065;-33
2022/05/02 05:25:49;;;;;;;18.98;13.48;;;5.30;99.90;;;;;;5006597;28;20491;-33
2022/05/02 05:28:25;;;;;;;20.65;14.82;;;5.30;99.90;;;;;;5002029;28;20406;-33
2022/05/02 05:30:55;;;;;;;21.55;15.48;;;5.40;99.90;;;;;;5009980;28;20048;-33
2022/05/02 05:33:28;;;;;;;25.58;15.55;;;5.40;99.90;;;;;;5010737;28;20132;-33
2022/05/02 05:36:03;;;;;;;23.15;15.45;;;5.50;99.90;;;;;;5011277;28;20054;-33
2022/05/02 05:38:35;;;;;;;24.95;16.98;;;5.60;99.90;;;;;;5006637;28;20057;-33
2022/05/02 05:41:05;;;;;;;24.23;16.88;;;5.70;99.90;;;;;;5011087;28;20129;-32
2022/05/02 05:43:38;;;;;;;22.00;14.57;;;5.80;99.90;;;;;;5015409;28;20056;-32
2022/05/02 05:46:33;;;;;;;21.58;14.20;;;5.90;99.90;;;;;;5013143;28;20041;-32
2022/05/02 05:49:07;;;;;;;20.90;15.90;;;6.00;99.90;;;;;;5002677;28;20046;-32
2022/05/02 05:51:35;;;;;;;26.25;15.52;;;6.20;99.90;;;;;;5005306;28;20183;-32
2022/05/02 05:54:24;;;;;;;26.05;16.20;;;6.30;99.90;;;;;;5013894;28;20050;-34
2022/05/02 05:56:54;;;;;;;17.77;14.10;;;6.50;99.90;;;;;;5014188;28;20068;-32
2022/05/02 05:59:28;;;;;;;19.77;16.10;;;6.60;99.90;;;;;;5014343;28;20508;-33
2022/05/02 06:02:15;;;;;;;24.58;15.93;;;6.80;99.90;;;;;;5014906;28;20045;-33
2022/05/02 06:04:43;;;;;;;21.65;15.55;;;6.90;99.90;;;;;;5012524;28;20137;-33
2022/05/02 06:07:10;;;;;;;21.40;14.85;;;7.10;99.90;;;;;;5013284;28;20077;-33
2022/05/02 06:09:37;;;;;;;23.25;15.48;;;7.20;99.90;;;;;;5013659;28;20050;-33
2022/05/02 06:12:05;;;;;;;21.33;15.38;;;7.30;99.90;;;;;;5014370;28;20056;-33
2022/05/02 06:14:34;;;;;;;21.73;14.70;;;7.50;99.90;;;;;;5011619;28;20133;-33
2022/05/02 06:19:47;;;;;;;23.48;14.25;;;7.70;99.90;;;;;;5012514;28;20050;-32
2022/05/02 06:22:14;;;;;;;20.40;14.05;;;7.90;99.90;;;;;;5009291;28;20053;-33
2022/05/02 06:24:44;;;;;;;20.85;14.13;;;8.10;99.90;;;;;;5011558;28;20049;-33
2022/05/02 06:27:11;;;;;;;20.02;13.18;;;8.30;99.90;;;;;;5013623;28;20528;-33
2022/05/02 06:29:37;;;;;;;19.55;14.13;;;8.40;99.90;;;;;;5013559;28;20042;-33
2022/05/02 06:32:07;;;;;;;23.33;13.50;;;8.50;99.90;;;;;;5010616;28;20056;-33
2022/05/02 06:34:34;;;;;;;19.35;14.00;;;8.70;99.90;;;;;;5009099;28;20050;-33
2022/05/02 06:37:19;;;;;;;15.30;12.60;;;8.90;99.90;;;;;;5013170;28;20402;-33
2022/05/02 06:39:53;;;;;;;21.70;12.43;;;9.00;99.90;;;;;;5012984;28;20426;-33
2022/05/02 06:42:25;;;;;;;21.17;12.98;;;9.20;99.90;;;;;;4987427;28;20050;-32
2022/05/02 06:45:03;;;;;;;17.67;13.27;;;9.40;99.90;;;;;;5007751;28;20050;-33
2022/05/02 06:47:35;;;;;;;19.90;12.50;;;9.50;99.90;;;;;;4991692;28;20073;-34
2022/05/02 06:50:02;;;;;;;;;;;9.70;99.90;;;;;;5012912;28;20060;-34
2022/05/02 06:52:32;;;;;;;19.05;12.43;;;9.90;99.90;;;;;;5013183;28;20015;-34
2022/05/02 06:55:09;;;;;;;17.63;12.80;;;10.10;99.90;;;;;;5006290;28;20052;-34
2022/05/02 06:57:43;;;;;;;19.80;11.95;;;10.20;99.90;;;;;;5013886;28;20060;-34
2022/05/02 07:00:14;;;;;;;19.65;13.57;;;10.40;99.90;;;;;;4993527;28;20050;-34
2022/05/02 07:02:56;;;;;;;16.40;12.48;;;10.60;99.90;;;;;;5010863;28;20096;-34
2022/05/02 07:05:26;;;;;;;18.30;12.07;;;10.70;99.90;;;;;;5013495;28;20054;-34
2022/05/02 07:08:02;;;;;;;16.55;12.27;;;10.80;99.90;;;;;;4996281;28;20093;-34
2022/05/02 07:10:32;;;;;;;18.50;12.50;;;10.90;99.90;;;;;;5012005;28;20084;-33
2022/05/02 07:13:03;;;;;;;15.77;11.68;;;10.90;99.90;;;;;;5013599;28;20049;-33
2022/05/02 07:15:33;;;;;;;16.83;12.40;;;11.00;99.80;;;;;;5000553;28;20050;-33
2022/05/02 07:18:08;;;;;;;16.10;11.88;;;11.20;99.70;;;;;;5013354;28;20060;-33
2022/05/02 07:20:49;;;;;;;14.25;11.88;;;11.30;99.60;;;;;;4994451;28;20050;-33
2022/05/02 07:23:28;;;;;;;18.05;11.93;;;11.40;99.40;;;;;;4988769;28;20426;-33
2022/05/02 07:25:58;;;;;;;16.98;11.57;;;11.60;99.40;;;;;;5007673;28;20050;-33
2022/05/02 07:28:30;;;;;;;14.90;10.95;;;11.80;99.10;;;;;;4988232;28;20082;-34
2022/05/02 07:30:57;;;;;;;12.35;10.52;;;12.00;98.90;;;;;;4989344;28;20062;-34
2022/05/02 07:33:24;;;;;;;16.52;12.00;;;12.20;98.50;;;;;;4990596;28;20069;-34
2022/05/02 07:35:50;;;;;;;16.13;10.43;;;12.30;97.90;;;;;;4981803;28;20394;-33
2022/05/02 07:38:18;;;;;;;15.15;11.27;;;12.40;98.00;;;;;;5006728;28;20072;-34
2022/05/02 07:41:22;;;;;;;13.43;11.10;;;12.60;97.50;;;;;;5009028;28;20058;-34
2022/05/02 07:43:34;;;;;;;16.48;11.27;;;12.70;97.20;;;;;;5010433;28;20050;-33
2022/05/02 07:46:02;;;;;;;16.48;10.90;;;12.90;96.90;;;;;;5012517;28;20410;-34
2022/05/02 07:48:28;;;;;;;18.40;11.73;;;13.00;96.70;;;;;;5010638;28;20042;-34
2022/05/02 07:50:55;;;;;;;13.60;10.90;;;13.20;96.30;;;;;;5009733;28;20054;-34
2022/05/02 07:53:22;;;;;;;15.02;11.02;;;13.30;96.20;;;;;;5008881;28;20060;-33
2022/05/02 07:55:50;;;;;;;19.70;11.05;;;13.50;96.10;;;;;;5011534;28;20397;-34
2022/05/02 07:58:17;;;;;;;14.65;10.60;;;13.70;95.60;;;;;;5013101;28;20041;-34
2022/05/02 08:00:44;;;;;;;17.60;10.00;;;13.90;95.40;;;;;;5012299;28;20053;-34
2022/05/02 08:03:10;;;;;;;11.57;9.63;;;14.00;94.80;;;;;;5010354;28;20064;-34
2022/05/02 08:05:37;;;;;;;13.18;9.02;;;14.10;94.30;;;;;;5012429;28;20129;-33
2022/05/02 08:08:08;;;;;;;15.32;10.30;;;14.20;93.80;;;;;;5012207;28;20447;-34
2022/05/02 08:10:45;;;;;;;12.05;9.15;;;14.30;92.80;;;;;;5011146;28;20054;-33
2022/05/02 08:13:32;;;;;;;16.13;9.65;;;14.30;92.20;;;;;;5010241;28;20054;-33
2022/05/02 08:16:02;;;;;;;12.75;7.80;;;14.40;91.10;;;;;;5010813;28;20053;-33
2022/05/02 08:18:44;;;;;;;13.32;8.48;;;14.50;92.10;;;;;;5011665;28;20072;-33
2022/05/02 08:21:12;;;;;;;;;;;14.70;91.10;;;;;;5011095;28;20053;-33
2022/05/02 08:27:19;;;;;;;13.27;8.40;;;15.10;91.50;;;;;;5011687;28;20054;-33
2022/05/02 08:30:07;;;;;;;13.90;10.00;;;15.40;91.40;;;;;;5010993;28;20077;-33
2022/05/02 08:32:45;;;;;;;14.50;9.38;;;15.60;90.20;;;;;;5006002;28;20046;-33
2022/05/02 08:35:14;;;;;;;12.38;8.95;;;15.80;90.30;;;;;;5012407;28;20065;-34
2022/05/02 08:38:02;;;;;;;13.52;9.05;;;15.90;90.00;;;;;;5012091;28;20052;-33
2022/05/02 08:41:05;;;;;;;12.70;9.07;;;16.10;88.90;;;;;;5003320;28;20052;-34
2022/05/02 08:43:46;;;;;;;12.32;9.15;;;16.20;84.20;;;;;;4998067;28;20077;-33
2022/05/02 08:46:33;;;;;;;12.10;8.80;;;16.40;84.80;;;;;;5010437;28;20050;-34
2022/05/02 08:49:36;;;;;;;10.20;8.07;;;16.40;84.10;;;;;;5002440;28;20042;-34
2022/05/02 08:52:31;;;;;;;13.45;8.57;;;16.60;83.10;;;;;;5007903;28;20470;-34
2022/05/02 08:55:06;;;;;;;10.90;8.27;;;16.70;76.80;;;;;;5010643;28;20108;-34
2022/05/02 08:57:54;;;;;;;9.95;7.93;;;16.60;79.40;;;;;;5005188;28;20065;-33
2022/05/02 09:00:25;;;;;;;9.40;7.55;;;16.70;78.70;;;;;;5003846;28;20104;-33
2022/05/02 09:03:18;;;;;;;11.38;7.47;;;16.90;78.60;;;;;;5007947;28;20056;-34
2022/05/02 09:06:19;;;;;;;16.35;7.90;;;17.10;78.10;;;;;;5007361;28;20460;-34
2022/05/02 09:09:04;;;;;;;8.60;7.05;;;17.30;75.40;;;;;;4997640;28;20060;-33
2022/05/02 09:11:44;;;;;;;11.30;7.43;;;17.50;75.60;;;;;;4994198;28;20073;-33
2022/05/02 09:14:34;;;;;;;8.70;7.18;;;17.60;72.30;;;;;;5005991;28;20417;-33
2022/05/02 09:17:34;;;;;;;9.82;6.85;;;17.40;71.90;;;;;;5008437;28;20050;-33
2022/05/02 09:20:33;;;;;;;9.55;7.43;;;17.40;73.80;;;;;;5014083;28;20045;-33
2022/05/02 09:23:28;;;;;;;12.27;7.10;;;17.70;73.70;;;;;;5014669;28;20056;-33
2022/05/02 09:26:19;;;;;;;11.52;7.45;;;17.80;72.20;;;;;;5009611;28;20046;-33
2022/05/02 09:28:52;;;;;;;9.30;7.07;;;18.10;71.30;;;;;;5010748;28;20409;-33
2022/05/02 09:31:19;;;;;;;11.68;7.53;;;18.00;69.60;;;;;;5012068;28;20050;-33
2022/05/02 09:33:50;;;;;;;8.35;6.70;;;17.90;69.10;;;;;;5011789;28;20054;-34
2022/05/02 09:36:25;;;;;;;11.15;7.57;;;17.90;69.90;;;;;;5014649;28;20108;-34
2022/05/02 09:38:56;;;;;;;10.85;7.50;;;17.90;71.10;;;;;;5013460;28;20046;-34
2022/05/02 09:41:44;;;;;;;12.38;7.30;;;18.10;70.50;;;;;;5011445;28;20084;-34
2022/05/02 09:50:03;;;;;;;8.93;5.82;;;18.60;65.80;;;;;;5013028;28;20060;-34
2022/05/02 09:52:35;;;;;;;11.05;7.68;;;18.80;65.80;;;;;;5009382;28;20073;-34
2022/05/02 09:58:43;;;;;;;12.25;7.57;;;19.10;65.00;;;;;;5009274;28;20058;-34
2022/05/02 10:01:17;;;;;;;10.70;7.60;;;19.10;65.50;;;;;;4991866;28;20062;-34
2022/05/02 10:04:00;;;;;;;9.60;7.20;;;19.30;64.40;;;;;;5013166;28;20100;-34
2022/05/02 10:06:30;;;;;;;10.07;6.38;;;19.40;64.20;;;;;;5007783;28;20385;-34
2022/05/02 10:09:01;;;;;;;7.43;6.15;;;19.20;64.00;;;;;;5008687;28;20050;-34
2022/05/02 10:11:51;;;;;;;9.63;5.85;;;19.20;64.40;;;;;;5014221;28;20490;-34
2022/05/02 10:14:46;;;;;;;7.85;5.90;;;19.30;65.10;;;;;;5011021;28;20046;-34
2022/05/02 10:17:16;;;;;;;9.45;5.85;;;19.50;64.10;;;;;;5009350;28;20050;-34
2022/05/02 10:20:04;;;;;;;8.70;7.13;;;19.60;63.40;;;;;;5010493;28;20045;-34
2022/05/02 10:22:31;;;;;;;11.73;6.47;;;19.70;61.00;;;;;;5010134;28;20396;-34
2022/05/02 10:25:06;;;;;;;7.32;5.63;;;19.80;62.50;;;;;;5011083;28;20137;-34
2022/05/02 10:27:48;;;;;;;11.93;6.07;;;20.00;62.10;;;;;;5008928;28;20785;-34
2022/05/02 10:30:15;;;;;;;7.47;6.15;;;20.20;60.60;;;;;;5008212;28;20042;-34
2022/05/02 10:32:52;;;;;;;10.00;7.35;;;20.30;61.20;;;;;;5008846;28;20060;-34
2022/05/02 10:35:19;;;;;;;12.43;6.82;;;20.30;58.40;;;;;;5008744;28;20558;-33
2022/05/02 10:37:56;;;;;;;9.63;6.47;;;20.10;57.80;;;;;;5008448;28;20482;-34
2022/05/02 10:40:35;;;;;;;7.68;5.95;;;20.00;57.80;;;;;;5010066;28;20440;-33
2022/05/02 10:43:04;;;;;;;10.25;7.10;;;19.90;58.20;;;;;;5011554;28;20056;-33
2022/05/02 10:45:33;;;;;;;10.65;7.25;;;19.90;56.90;;;;;;5000590;28;20045;-33
2022/05/02 10:48:06;;;;;;;7.90;6.70;;;19.90;57.40;;;;;;5010729;28;20415;-34
2022/05/02 10:50:34;;;;;;;11.57;6.20;;;20.00;58.00;;;;;;5012346;28;20050;-34
2022/05/02 10:53:32;;;;;;;9.27;6.22;;;20.20;56.80;;;;;;5013908;28;20049;-33
2022/05/02 10:56:13;;;;;;;9.13;5.68;;;20.40;58.50;;;;;;4997090;28;20053;-33
2022/05/02 10:58:41;;;;;;;6.85;5.07;;;20.60;58.10;;;;;;5014312;28;20056;-34
2022/05/02 11:01:19;;;;;;;5.97;5.13;;;20.80;58.20;;;;;;5014147;28;20042;-34
2022/05/02 11:03:52;;;;;;;9.32;6.32;;;20.90;57.60;;;;;;5012933;28;20050;-34
2022/05/02 11:06:27;;;;;;;8.68;5.70;;;21.10;56.40;;;;;;5013170;28;20042;-34
2022/05/02 11:08:55;;;;;;;9.38;5.85;;;21.20;56.30;;;;;;5014270;28;20395;-35
2022/05/02 11:11:27;;;;;;;9.52;5.78;;;21.30;56.60;;;;;;5010399;28;20049;-35
2022/05/02 11:13:57;;;;;;;9.95;6.07;;;21.50;55.50;;;;;;4996829;28;20046;-35
2022/05/02 11:16:26;;;;;;;8.52;5.95;;;21.40;55.30;;;;;;5014000;28;20052;-34
2022/05/02 11:22:02;;;;;;;9.02;5.88;;;21.50;56.20;;;;;;5013739;28;20042;-34
2022/05/02 11:24:38;;;;;;;9.88;6.00;;;21.40;55.70;;;;;;5013669;28;20060;-34
2022/05/02 11:27:21;;;;;;;7.88;5.32;;;21.20;56.20;;;;;;5013748;28;20060;-34
2022/05/02 11:29:53;;;;;;;10.35;6.30;;;21.20;56.10;;;;;;5004560;28;20057;-34
2022/05/02 11:32:25;;;;;;;7.63;5.85;;;21.10;55.10;;;;;;5001239;28;20402;-34
2022/05/02 11:34:54;;;;;;;7.68;5.20;;;20.90;55.20;;;;;;5010352;28;20042;-34
2022/05/02 11:37:25;;;;;;;7.18;5.80;;;20.60;57.10;;;;;;5011978;28;20050;-34
2022/05/02 11:39:57;;;;;;;8.05;5.28;;;20.60;56.60;;;;;;5008926;28;20069;-35
2022/05/02 11:42:27;;;;;;;8.50;6.40;;;20.80;57.10;;;;;;5006593;28;20104;-35
2022/05/02 11:45:01;;;;;;;9.27;6.22;;;21.00;54.00;;;;;;5013439;28;20048;-35
2022/05/02 11:47:31;;;;;;;9.32;5.55;;;21.10;53.50;;;;;;5006392;28;20052;-35
2022/05/02 11:50:02;;;;;;;6.13;5.53;;;21.10;53.90;;;;;;5013085;28;20067;-35
2022/05/02 11:52:32;;;;;;;8.05;5.97;;;21.20;54.20;;;;;;5013260;28;20052;-34
2022/05/02 11:54:59;;;;;;;8.63;5.75;;;21.50;53.90;;;;;;5012126;28;20374;-34
2022/05/02 11:57:31;;;;;;;11.13;5.70;;;21.50;53.80;;;;;;5013211;28;20050;-34
2022/05/02 11:59:58;;;;;;;;;;;21.40;53.10;;;;;;5013610;28;20398;-33
2022/05/02 12:02:33;;;;;;;11.70;5.90;;;21.30;53.90;;;;;;4999880;28;19928;-34
2022/05/02 12:05:01;;;;;;;8.27;5.20;;;21.40;52.40;;;;;;5009884;28;20487;-34
2022/05/02 12:07:32;;;;;;;7.65;4.63;;;21.40;53.90;;;;;;5013076;28;20402;-33
2022/05/02 12:10:02;;;;;;;6.35;4.45;;;21.50;54.60;;;;;;5011894;28;20050;-33
2022/05/02 12:12:31;;;;;;;5.95;5.28;;;21.60;53.30;;;;;;5005648;28;20093;-33
2022/05/02 12:15:01;;;;;;;9.95;4.82;;;21.90;52.00;;;;;;5010963;28;20057;-33
2022/05/02 12:17:28;;;;;;;6.70;4.78;;;22.10;50.20;;;;;;5003933;28;20053;-33
2022/05/02 12:19:54;;;;;;;7.72;4.47;;;22.10;50.00;;;;;;5012869;28;20464;-33
2022/05/02 12:22:26;;;;;;;5.45;4.07;;;22.10;50.60;;;;;;5003256;28;20072;-34
2022/05/02 12:24:54;;;;;;;7.65;3.92;;;22.30;50.70;;;;;;5012789;28;20473;-33
2022/05/02 12:27:21;;;;;;;5.45;3.53;;;22.60;51.20;;;;;;5012495;28;20053;-33
2022/05/02 12:29:56;;;;;;;10.05;3.95;;;22.80;50.50;;;;;;5011611;28;20113;-33
2022/05/02 12:32:25;;;;;;;7.60;3.80;;;23.00;48.20;;;;;;5012256;28;20060;-33
2022/05/02 12:34:55;;;;;;;6.22;3.65;;;22.90;48.90;;;;;;5010945;28;20073;-34
2022/05/02 12:37:32;;;;;;;8.77;3.70;;;22.80;48.50;;;;;;5005994;28;20057;-34
2022/05/02 12:40:04;;;;;;;7.75;3.70;;;22.80;47.40;;;;;;5008074;28;20060;-33
2022/05/02 12:42:39;;;;;;;9.63;4.28;;;22.80;47.60;;;;;;5011763;28;20053;-33
2022/05/02 12:45:10;;;;;;;7.35;3.88;;;22.90;48.30;;;;;;5012755;28;20076;-33
2022/05/02 12:47:43;;;;;;;5.90;3.47;;;23.00;48.20;;;;;;5004709;28;20145;-34
2022/05/02 12:50:13;;;;;;;5.65;3.72;;;23.10;49.90;;;;;;5013428;28;20502;-34
2022/05/02 12:52:43;;;;;;;6.10;4.00;;;23.30;48.80;;;;;;5006997;28;20045;-34
2022/05/02 12:55:10;;;;;;;7.72;4.80;;;23.30;48.50;;;;;;5014785;28;20058;-34
2022/05/02 13:00:33;;;;;;;6.55;4.05;;;23.20;47.00;;;;;;5015052;28;20054;-34
2022/05/02 13:03:01;;;;;;;6.20;5.43;;;23.20;48.00;;;;;;5015985;28;20115;-34
2022/05/02 13:05:31;;;;;;;8.45;5.07;;;23.30;47.50;;;;;;5015743;28;20050;-34
2022/05/02 13:07:57;;;;;;;9.38;5.38;;;23.30;48.30;;;;;;5016164;28;20050;-34
2022/05/02 13:10:25;;;;;;;8.88;5.72;;;23.40;48.90;;;;;;4999534;28;20061;-34
2022/05/02 13:12:58;;;;;;;9.25;5.55;;;23.40;46.50;;;;;;5012699;28;20045;-34
2022/05/02 13:15:26;;;;;;;11.20;5.10;;;23.40;46.60;;;;;;5012948;28;20060;-34
2022/05/02 13:17:52;;;;;;;7.68;4.70;;;23.40;47.00;;;;;;5015993;28;20447;-34
2022/05/02 13:20:19;;;;;;;7.63;5.00;;;23.20;47.20;;;;;;5015671;28;20056;-35
2022/05/02 13:23:03;;;;;;;7.55;5.10;;;23.30;47.10;;;;;;5013534;28;20057;-34
2022/05/02 13:26:06;;;;;;;6.85;4.97;;;23.40;45.90;;;;;;5009153;28;20057;-34
2022/05/02 13:28:39;;;;;;;7.75;5.75;;;23.50;46.20;;;;;;4974290;28;20051;-34
2022/05/02 13:31:13;;;;;;;7.55;4.25;;;23.30;46.10;;;;;;5005375;28;20512;-33
2022/05/02 13:33:40;;;;;;;12.43;4.47;;;23.50;46.00;;;;;;5005603;28;20061;-33
2022/05/02 13:36:08;;;;;;;6.47;4.47;;;23.50;45.70;;;;;;5014678;28;20052;-33